Time;durP1;ratioP1;P1;durP2;ratioP2;P2;SDS_P1;SDS_P2;PMS_P1;PMS_P2;Temp;Humidity;BMP_temperature;BMP_pressure;BME280_temperature;BME280_humidity;BME280_pressure;Samples;Min_cycle;Max_cycle;Signal;HPM_P1;HPM_P2
2023/04/30 00:02:07;;;;;;;11.50;6.45;;;;;;;12.93;100.00;98482.38;5062945;28;20432;-95
2023/04/30 00:04:33;;;;;;;10.65;6.57;;;;;;;12.88;100.00;98473.72;5077283;28;20044;-95
2023/04/30 00:07:00;;;;;;;11.25;6.95;;;;;;;13.02;100.00;98504.28;5077427;28;20045;-95
2023/04/30 00:09:26;;;;;;;10.15;6.97;;;;;;;13.06;100.00;98514.78;5066320;28;20040;-93
2023/04/30 00:11:52;;;;;;;11.45;6.88;;;;;;;12.85;100.00;98471.16;5060167;28;20090;-95
2023/04/30 00:14:18;;;;;;;12.13;7.43;;;;;;;13.00;100.00;98495.47;5061269;28;20110;-93
2023/04/30 00:16:45;;;;;;;16.10;7.60;;;;;;;12.78;100.00;98459.00;5057830;28;20045;-94
2023/04/30 00:19:11;;;;;;;13.63;7.45;;;;;;;12.93;100.00;98479.72;5057918;28;20502;-95
2023/04/30 00:21:37;;;;;;;11.82;7.15;;;;;;;12.94;100.00;98477.91;5057232;28;20048;-94
2023/04/30 00:24:05;;;;;;;11.88;6.78;;;;;;;12.87;100.00;98465.75;5056441;28;20045;-95
2023/04/30 00:26:30;;;;;;;14.10;7.45;;;;;;;12.97;100.00;98479.56;5056518;28;20148;-93
2023/04/30 00:28:56;;;;;;;11.88;6.90;;;;;;;13.01;100.00;98487.41;5056462;28;20076;-94
2023/04/30 00:31:22;;;;;;;11.80;7.30;;;;;;;12.75;100.00;98459.09;5057172;28;20041;-95
2023/04/30 00:33:48;;;;;;;14.18;7.63;;;;;;;12.74;100.00;98455.56;5057991;28;20048;-95
2023/04/30 00:36:14;;;;;;;11.50;7.18;;;;;;;12.88;100.00;98460.38;5057511;28;20102;-96
2023/04/30 00:38:40;;;;;;;10.90;6.80;;;;;;;12.89;100.00;98459.41;5057179;28;20048;-95
2023/04/30 00:41:08;;;;;;;18.15;7.43;;;;;;;12.91;100.00;98460.22;5057650;28;20116;-94
2023/04/30 00:43:34;;;;;;;12.23;6.95;;;;;;;12.84;100.00;98437.41;5056747;28;20502;-95
2023/04/30 00:46:02;;;;;;;11.27;7.22;;;;;;;12.87;100.00;98433.72;5056907;28;20144;-93
2023/04/30 00:48:28;;;;;;;10.25;6.75;;;;;;;12.90;100.00;98437.16;5055771;28;20044;-95
2023/04/30 00:50:55;;;;;;;12.05;7.15;;;;;;;12.94;100.00;98438.72;5055249;28;20048;-94
2023/04/30 00:53:21;;;;;;;12.68;7.10;;;;;;;12.92;100.00;98439.75;5055941;28;20056;-95
2023/04/30 00:55:47;;;;;;;11.32;7.47;;;;;;;13.01;100.00;98454.50;5056154;28;20059;-95
2023/04/30 00:58:15;;;;;;;12.13;7.32;;;;;;;13.10;100.00;98463.00;5056424;28;20049;-94
2023/04/30 01:00:45;;;;;;;14.77;7.88;;;;;;;12.91;100.00;98420.19;5055658;28;20051;-95
2023/04/30 01:03:12;;;;;;;10.35;6.88;;;;;;;12.94;100.00;98424.53;5054463;28;20086;-94
2023/04/30 01:05:38;;;;;;;12.95;7.32;;;;;;;13.04;100.00;98447.25;5054871;28;20140;-94
2023/04/30 01:08:04;;;;;;;10.75;7.43;;;;;;;13.16;100.00;98448.50;5054189;28;20127;-95
2023/04/30 01:10:41;;;;;;;13.52;7.10;;;;;;;13.05;100.00;98424.94;5054121;28;20052;-94
2023/04/30 01:13:16;;;;;;;13.98;7.47;;;;;;;12.90;100.00;98399.78;5054183;28;20552;-93
2023/04/30 01:15:50;;;;;;;12.77;7.13;;;;;;;13.14;100.00;98453.94;5064192;28;20044;-93
2023/04/30 01:18:21;;;;;;;12.20;6.80;;;;;;;13.10;100.00;98448.78;5074376;28;20063;-95
2023/04/30 01:20:52;;;;;;;13.32;7.25;;;;;;;12.93;100.00;98417.47;5074488;28;20049;-93
2023/04/30 01:23:33;;;;;;;13.10;7.20;;;;;;;12.93;100.00;98420.13;5075037;28;20139;-94
2023/04/30 01:26:10;;;;;;;10.55;6.45;;;;;;;12.89;100.00;98410.53;5075426;28;20051;-94
2023/04/30 01:28:42;;;;;;;11.25;7.35;;;;;;;13.04;100.00;98447.25;5075708;28;20044;-95
2023/04/30 01:31:12;;;;;;;12.27;6.53;;;;;;;12.89;100.00;98416.72;5075559;28;20404;-95
2023/04/30 01:33:38;;;;;;;11.10;6.97;;;;;;;12.87;100.00;98412.38;5074975;28;20059;-94
2023/04/30 01:36:20;;;;;;;10.00;6.43;;;;;;;12.87;100.00;98412.38;5076060;28;20044;-93
2023/04/30 01:39:08;;;;;;;11.15;6.60;;;;;;;13.02;100.00;98437.56;5074987;28;20044;-93
2023/04/30 01:41:39;;;;;;;10.37;6.73;;;;;;;12.91;100.00;98416.66;5074728;28;20055;-94
2023/04/30 01:44:24;;;;;;;11.15;6.68;;;;;;;12.81;100.00;98394.81;5073849;28;20847;-94
2023/04/30 01:46:57;;;;;;;13.77;7.15;;;;;;;13.03;100.00;98415.25;5073495;28;20044;-95
2023/04/30 01:49:36;;;;;;;10.30;6.75;;;;;;;12.92;100.00;98402.38;5073483;28;20394;-94
2023/04/30 01:52:11;;;;;;;10.50;6.80;;;;;;;12.86;100.00;98392.84;5073728;28;20072;-94
2023/04/30 01:54:45;;;;;;;10.93;6.18;;;;;;;12.84;100.00;98388.50;5073839;28;20526;-94
2023/04/30 01:57:17;;;;;;;11.85;6.28;;;;;;;13.06;100.00;98424.03;5073640;28;20135;-95
2023/04/30 01:59:45;;;;;;;9.60;6.28;;;;;;;12.87;100.00;98383.91;5073367;28;20044;-95
2023/04/30 02:02:11;;;;;;;9.60;6.05;;;;;;;13.08;100.00;98413.28;5066473;28;20052;-92
2023/04/30 02:04:37;;;;;;;8.77;6.20;;;;;;;13.06;100.00;98399.13;5060371;28;20045;-93
2023/04/30 02:07:03;;;;;;;11.30;6.85;;;;;;;13.18;100.00;98419.94;5073143;28;20044;-93
2023/04/30 02:09:29;;;;;;;10.63;6.43;;;;;;;13.15;100.00;98388.06;5071322;28;20044;-94
2023/04/30 02:11:56;;;;;;;9.48;6.85;;;;;;;13.12;100.00;98398.88;5056586;28;20078;-94
2023/04/30 02:14:22;;;;;;;9.57;6.47;;;;;;;13.05;100.00;98413.41;5056771;28;20566;-95
2023/04/30 02:16:50;;;;;;;14.32;7.18;;;;;;;12.95;100.00;98399.59;5056655;28;20517;-95
2023/04/30 02:19:16;;;;;;;13.90;6.50;;;;;;;12.93;100.00;98405.00;5056434;28;20087;-94
2023/04/30 02:21:41;;;;;;;11.35;6.78;;;;;;;12.85;100.00;98385.75;5056521;28;20502;-95
2023/04/30 02:24:07;;;;;;;10.48;6.75;;;;;;;13.01;100.00;98404.69;5056781;28;20078;-95
2023/04/30 02:26:33;;;;;;;10.55;7.28;;;;;;;13.02;100.00;98408.22;5060454;28;20098;-94
2023/04/30 02:28:59;;;;;;;10.90;6.93;;;;;;;12.88;100.00;98380.31;5060273;28;20063;-94
2023/04/30 02:31:25;;;;;;;11.88;7.15;;;;;;;12.98;100.00;98395.91;5060521;28;20079;-93
2023/04/30 02:33:53;;;;;;;12.05;7.20;;;;;;;12.87;100.00;98383.03;5060580;28;20036;-93
2023/04/30 02:36:19;;;;;;;12.20;7.18;;;;;;;12.98;100.00;98411.94;5060302;28;20497;-93
2023/04/30 02:38:45;;;;;;;10.23;6.78;;;;;;;12.76;100.00;98380.81;5060176;28;20036;-95
2023/04/30 02:41:11;;;;;;;15.65;6.93;;;;;;;12.86;100.00;98398.19;5060642;28;20072;-95
2023/04/30 02:43:37;;;;;;;10.82;7.07;;;;;;;12.94;100.00;98379.16;5060088;28;20068;-93
2023/04/30 02:46:05;;;;;;;8.80;6.57;;;;;;;12.81;100.00;98375.28;5060103;28;20044;-94
2023/04/30 02:48:31;;;;;;;10.15;7.20;;;;;;;12.76;100.00;98369.28;5060371;28;20429;-94
2023/04/30 02:50:58;;;;;;;9.85;6.40;;;;;;;12.73;100.00;98370.28;5060169;28;20040;-94
2023/04/30 02:53:24;;;;;;;10.70;6.57;;;;;;;12.94;100.00;98397.84;5060025;28;20045;-95
2023/04/30 02:55:50;;;;;;;13.18;7.20;;;;;;;12.86;100.00;98391.97;5060616;28;20090;-94
2023/04/30 02:58:16;;;;;;;10.90;7.25;;;;;;;12.87;100.00;98412.38;5059904;28;20071;-95
2023/04/30 03:00:42;;;;;;;10.63;7.05;;;;;;;12.53;100.00;98364.00;5059988;28;20052;-94
2023/04/30 03:03:08;;;;;;;11.93;7.50;;;;;;;12.45;100.00;98362.56;5059895;28;20063;-95
2023/04/30 03:05:34;;;;;;;12.52;7.60;;;;;;;12.49;100.00;98386.38;5059878;28;20051;-94
2023/04/30 03:08:01;;;;;;;9.90;7.32;;;;;;;12.28;100.00;98364.13;5059455;28;20141;-95
2023/04/30 03:10:27;;;;;;;9.98;7.43;;;;;;;12.22;100.00;98374.16;5059550;28;20521;-94
2023/04/30 03:12:53;;;;;;;12.10;6.72;;;;;;;12.16;100.00;98369.94;5059473;28;20040;-95
2023/04/30 03:15:19;;;;;;;9.43;6.75;;;;;;;12.11;100.00;98369.25;5059342;28;20060;-94
2023/04/30 03:17:45;;;;;;;10.77;7.20;;;;;;;11.97;100.00;98356.47;5059384;28;20505;-94
2023/04/30 03:20:12;;;;;;;10.15;7.28;;;;;;;12.01;100.00;98371.41;5059616;28;20094;-95
2023/04/30 03:22:38;;;;;;;10.45;7.05;;;;;;;12.10;100.00;98381.72;5059840;28;20110;-94
2023/04/30 03:25:06;;;;;;;10.15;7.32;;;;;;;11.90;100.00;98341.66;5059279;28;20044;-95
2023/04/30 03:27:34;;;;;;;12.15;8.13;;;;;;;11.99;100.00;98345.75;5059634;28;20113;-93
2023/04/30 03:30:00;;;;;;;11.77;7.90;;;;;;;11.94;100.00;98332.59;5059603;28;20049;-95
2023/04/30 03:32:26;;;;;;;16.67;8.43;;;;;;;12.25;100.00;98364.25;5059261;28;20055;-95
2023/04/30 03:34:52;;;;;;;13.93;8.40;;;;;;;12.25;100.00;98358.91;5059146;28;20044;-94
2023/04/30 03:37:18;;;;;;;14.27;8.40;;;;;;;12.26;100.00;98349.97;5057858;28;20140;-95
2023/04/30 03:39:44;;;;;;;13.68;8.68;;;;;;;12.19;100.00;98334.28;5059176;28;20071;-94
2023/04/30 03:42:11;;;;;;;13.27;8.13;;;;;;;12.24;100.00;98337.66;5059350;28;20139;-95
2023/04/30 03:44:37;;;;;;;14.18;8.05;;;;;;;12.41;100.00;98347.63;5059372;28;20040;-93
2023/04/30 03:47:03;;;;;;;12.38;8.02;;;;;;;12.49;100.00;98356.16;5058726;28;20041;-95
2023/04/30 03:49:29;;;;;;;13.82;8.32;;;;;;;12.40;100.00;98337.88;5059030;28;20036;-94
2023/04/30 03:51:56;;;;;;;12.93;8.25;;;;;;;12.39;100.00;98333.47;5058850;28;20103;-95
2023/04/30 03:54:21;;;;;;;12.43;8.20;;;;;;;12.46;100.00;98338.47;5059192;28;20072;-95
2023/04/30 03:56:47;;;;;;;16.00;8.23;;;;;;;12.41;100.00;98318.28;5058742;28;20071;-95
2023/04/30 03:59:15;;;;;;;11.30;8.27;;;;;;;12.48;100.00;98333.94;5058706;28;20068;-95
2023/04/30 04:01:41;;;;;;;13.77;8.23;;;;;;;12.62;100.00;98344.06;5059009;28;20041;-94
2023/04/30 04:04:07;;;;;;;11.23;7.45;;;;;;;12.67;100.00;98357.19;5059015;28;20094;-95
2023/04/30 04:06:33;;;;;;;11.98;8.00;;;;;;;12.60;100.00;98313.91;5059856;28;20044;-94
2023/04/30 04:08:59;;;;;;;16.73;8.27;;;;;;;12.76;100.00;98323.94;5059675;28;20516;-92
2023/04/30 04:11:25;;;;;;;11.52;7.60;;;;;;;12.80;100.00;98310.38;5059746;28;20070;-94
2023/04/30 04:13:51;;;;;;;13.05;7.65;;;;;;;13.03;100.00;98335.19;5059184;28;20037;-94
2023/04/30 04:16:18;;;;;;;10.88;6.60;;;;;;;13.07;100.00;98334.13;5059313;28;20045;-93
2023/04/30 04:18:44;;;;;;;11.18;7.00;;;;;;;13.03;100.00;98322.69;5058566;28;20044;-94
2023/04/30 04:21:11;;;;;;;10.85;7.15;;;;;;;13.17;100.00;98335.47;5058290;28;20044;-94
2023/04/30 04:23:37;;;;;;;10.73;7.30;;;;;;;13.29;100.00;98350.97;5058497;28;20037;-94
2023/04/30 04:26:03;;;;;;;11.32;6.72;;;;;;;13.12;100.00;98310.78;5058193;28;20087;-94
2023/04/30 04:28:28;;;;;;;11.25;6.90;;;;;;;13.30;100.00;98344.69;5058789;28;20425;-94
2023/04/30 04:30:55;;;;;;;12.10;7.10;;;;;;;13.21;100.00;98329.03;5058124;28;20497;-94
2023/04/30 04:33:22;;;;;;;10.70;6.43;;;;;;;13.13;100.00;98315.16;5058828;28;20401;-94
2023/04/30 04:35:48;;;;;;;10.50;7.03;;;;;;;13.17;100.00;98316.78;5059133;28;20048;-95
2023/04/30 04:38:14;;;;;;;11.07;6.65;;;;;;;13.35;100.00;98342.66;5058641;28;20051;-93
2023/04/30 04:40:40;;;;;;;10.32;6.57;;;;;;;13.45;100.00;98348.47;5058896;28;20067;-94
2023/04/30 04:43:06;;;;;;;10.40;6.55;;;;;;;13.43;100.00;98339.66;5058675;28;20534;-94
2023/04/30 04:45:32;;;;;;;10.48;6.65;;;;;;;13.58;100.00;98354.13;5058425;28;20114;-94
2023/04/30 04:47:58;;;;;;;12.20;7.90;;;;;;;13.42;100.00;98323.69;5058670;28;20040;-93
2023/04/30 04:50:28;;;;;;;13.52;8.27;;;;;;;13.42;100.00;98329.03;5058362;28;20040;-93
2023/04/30 04:52:54;;;;;;;12.43;8.48;;;;;;;13.43;100.00;98336.13;5059244;28;20045;-93
2023/04/30 04:55:20;;;;;;;17.38;8.82;;;;;;;13.62;100.00;98371.75;5059108;28;20050;-93
2023/04/30 04:57:46;;;;;;;16.52;9.07;;;;;;;13.31;100.00;98346.41;5058814;28;20409;-94
2023/04/30 05:00:12;;;;;;;14.77;8.82;;;;;;;13.40;100.00;98360.28;5059347;28;20048;-93
2023/04/30 05:02:38;;;;;;;13.15;8.50;;;;;;;13.24;100.00;98344.06;5058432;28;20059;-95
2023/04/30 05:05:04;;;;;;;18.17;9.63;;;;;;;13.20;100.00;98340.66;5058585;28;20154;-93
2023/04/30 05:07:33;;;;;;;15.13;10.13;;;;;;;13.34;100.00;98367.66;5059154;28;20044;-95
2023/04/30 05:09:59;;;;;;;;;;;;;;;13.35;100.00;98374.69;5059099;28;20037;-95
2023/04/30 05:12:25;;;;;;;15.25;9.70;;;;;;;13.20;100.00;98332.63;5059684;28;19920;-95
2023/04/30 05:14:51;;;;;;;15.55;9.25;;;;;;;13.34;100.00;98340.09;5058919;28;20147;-94
2023/04/30 05:17:17;;;;;;;16.10;10.45;;;;;;;13.54;100.00;98352.53;5060037;28;20581;-94
2023/04/30 05:19:43;;;;;;;20.50;9.82;;;;;;;13.55;100.00;98339.09;5059339;28;20048;-94
2023/04/30 05:22:08;;;;;;;16.33;10.23;;;;;;;13.66;100.00;98343.06;5060038;28;20562;-95
2023/04/30 05:24:36;;;;;;;18.35;10.30;;;;;;;13.80;100.00;98353.97;5059477;28;20155;-94
2023/04/30 05:27:03;;;;;;;15.95;9.27;;;;;;;13.99;100.00;98364.69;5059318;28;20106;-94
2023/04/30 05:29:30;;;;;;;;;;;;;;;14.13;100.00;98383.59;5043574;28;20132;-93
2023/04/30 05:31:56;;;;;;;17.23;9.77;;;;;;;14.03;100.00;98349.34;5060038;28;19959;-93
2023/04/30 05:34:22;;;;;;;18.40;11.73;;;;;;;14.15;100.00;98352.31;5060213;28;20063;-94
2023/04/30 05:36:48;;;;;;;16.88;10.57;;;;;;;14.12;100.00;98339.09;5059555;28;20048;-94
2023/04/30 05:39:14;;;;;;;19.17;11.77;;;;;;;14.12;100.00;98347.13;5058537;28;20379;-93
2023/04/30 05:41:41;;;;;;;19.45;11.02;;;;;;;14.18;100.00;98341.47;5058254;28;20044;-94
2023/04/30 05:44:07;;;;;;;21.40;11.57;;;;;;;14.39;100.00;98354.72;5058230;28;20387;-95
2023/04/30 05:46:34;;;;;;;19.73;12.00;;;;;;;14.36;100.00;98334.34;5058512;28;20062;-93
2023/04/30 05:49:00;;;;;;;29.15;15.02;;;;;;;14.49;100.00;98331.94;5058580;28;20036;-95
2023/04/30 05:51:26;;;;;;;27.02;14.13;;;;;;;14.68;100.00;98337.25;5058014;28;20131;-94
2023/04/30 05:53:52;;;;;;;18.40;9.13;;;;;;;14.95;100.00;98367.09;5074720;28;20563;-94
2023/04/30 05:56:19;;;;;;;16.50;8.70;;;;;;;14.96;100.00;98335.81;5074755;28;20138;-95
2023/04/30 05:58:47;;;;;;;13.52;6.88;;;;;;;14.96;100.00;98351.88;5074242;28;20044;-94
2023/04/30 06:01:13;;;;;;;10.90;6.03;;;;;;;15.17;100.00;98356.13;5074399;28;20044;-94
2023/04/30 06:03:38;;;;;;;8.80;5.63;;;;;;;15.31;100.00;98323.28;5075367;28;20094;-94
2023/04/30 06:06:04;;;;;;;11.98;5.60;;;;;;;15.44;100.00;98326.16;5069153;28;20135;-94
2023/04/30 06:08:30;;;;;;;9.32;5.50;;;;;;;15.75;99.18;98341.47;5059479;28;20044;-95
2023/04/30 06:10:56;;;;;;;10.95;5.82;;;;;;;15.90;100.00;98334.41;5059783;28;20437;-95
2023/04/30 06:13:22;;;;;;;9.95;5.55;;;;;;;15.79;100.00;98329.63;5058832;28;20405;-94
2023/04/30 06:15:50;;;;;;;10.55;5.85;;;;;;;15.88;100.00;98344.34;5057690;28;20057;-94
2023/04/30 06:18:16;;;;;;;11.07;6.60;;;;;;;15.69;100.00;98328.34;5057906;28;20136;-94
2023/04/30 06:20:41;;;;;;;10.07;6.43;;;;;;;15.72;100.00;98352.38;5058059;28;20136;-95
2023/04/30 06:23:08;;;;;;;10.30;6.90;;;;;;;15.69;100.00;98360.53;5057572;28;20036;-95
2023/04/30 06:25:36;;;;;;;10.15;6.53;;;;;;;15.80;100.00;98355.47;5058053;28;20052;-94
2023/04/30 06:28:02;;;;;;;10.77;6.25;;;;;;;15.84;100.00;98313.28;5057964;28;20049;-94
2023/04/30 06:30:29;;;;;;;12.30;5.88;;;;;;;16.19;99.21;98335.41;5059366;28;20044;-95
2023/04/30 06:32:56;;;;;;;8.20;5.50;;;;;;;16.51;96.95;98337.22;5058822;28;20049;-92
2023/04/30 06:35:22;;;;;;;11.43;6.03;;;;;;;16.50;96.59;98327.41;5071624;28;20101;-96
2023/04/30 06:37:48;;;;;;;11.10;6.32;;;;;;;16.71;95.86;98344.09;5075369;28;20044;-95
2023/04/30 06:40:14;;;;;;;9.35;6.15;;;;;;;16.46;97.74;98324.06;5076819;28;20113;-95
2023/04/30 06:42:40;;;;;;;10.35;6.35;;;;;;;16.32;98.32;98330.22;5075377;28;20106;-95
2023/04/30 06:45:07;;;;;;;11.07;6.03;;;;;;;16.56;99.28;98335.97;5076160;28;20075;-94
2023/04/30 06:47:35;;;;;;;10.13;6.20;;;;;;;16.48;100.00;98323.97;5073634;28;20045;-96
2023/04/30 06:50:03;;;;;;;9.00;6.32;;;;;;;16.37;98.86;98324.59;5078859;28;20371;-93
2023/04/30 06:52:29;;;;;;;10.20;5.85;;;;;;;16.73;95.75;98326.09;5077798;28;20052;-95
2023/04/30 06:54:55;;;;;;;10.57;6.32;;;;;;;16.62;95.79;98324.88;5078242;28;20486;-94
2023/04/30 06:57:21;;;;;;;9.80;5.93;;;;;;;16.92;94.73;98345.56;5076470;28;20049;-93
2023/04/30 06:59:47;;;;;;;14.73;7.47;;;;;;;16.69;92.57;98322.69;5075834;28;20060;-95
2023/04/30 07:02:13;;;;;;;10.82;5.68;;;;;;;17.01;92.97;98328.88;5068515;28;20040;-95
2023/04/30 07:04:39;;;;;;;10.40;6.55;;;;;;;17.08;93.20;98323.13;5060340;28;20094;-94
2023/04/30 07:07:07;;;;;;;9.63;5.60;;;;;;;17.36;90.13;98349.19;5060409;28;20049;-95
2023/04/30 07:09:32;;;;;;;9.07;5.90;;;;;;;17.73;88.97;98347.75;5060653;28;20036;-92
2023/04/30 07:11:59;;;;;;;8.13;5.10;;;;;;;17.63;86.89;98325.97;5073371;28;20140;-94
2023/04/30 07:14:25;;;;;;;8.90;5.30;;;;;;;17.58;88.23;98330.75;5063828;28;20049;-95
2023/04/30 07:16:52;;;;;;;10.65;5.47;;;;;;;17.84;89.48;98361.41;5063037;28;20083;-94
2023/04/30 07:19:18;;;;;;;10.27;5.63;;;;;;;17.91;84.34;98334.97;5069839;28;20082;-94
2023/04/30 07:21:44;;;;;;;11.18;5.65;;;;;;;18.14;84.69;98357.72;5079528;28;20044;-94
2023/04/30 07:24:11;;;;;;;8.43;4.68;;;;;;;18.36;82.27;98313.25;5081229;28;20232;-95
2023/04/30 07:26:37;;;;;;;9.32;4.68;;;;;;;18.31;82.36;98358.47;5082177;28;20052;-96
2023/04/30 07:29:03;;;;;;;8.43;5.35;;;;;;;17.98;81.37;98327.41;5081596;28;20036;-96
2023/04/30 07:31:29;;;;;;;9.30;5.65;;;;;;;17.73;86.41;98325.38;5080022;28;20072;-94
2023/04/30 07:33:55;;;;;;;10.13;5.20;;;;;;;18.05;83.59;98337.66;5076434;28;20048;-93
2023/04/30 07:36:21;;;;;;;6.80;4.80;;;;;;;18.31;81.91;98321.66;5069917;28;20466;-94
2023/04/30 07:38:47;;;;;;;9.20;4.85;;;;;;;18.57;82.30;98314.53;5066299;28;20052;-95
2023/04/30 07:41:15;;;;;;;8.10;4.70;;;;;;;18.83;80.01;98311.94;5063242;28;20394;-95
2023/04/30 07:43:41;;;;;;;8.23;4.68;;;;;;;18.61;79.70;98313.38;5066991;28;20090;-94
2023/04/30 07:46:07;;;;;;;7.90;4.70;;;;;;;18.61;81.55;98316.06;5079557;28;20051;-94
2023/04/30 07:48:33;;;;;;;8.25;5.03;;;;;;;19.00;79.67;98343.13;5068481;28;20045;-93
2023/04/30 07:50:59;;;;;;;7.03;4.13;;;;;;;19.25;76.01;98337.75;5066987;28;20033;-95
2023/04/30 07:53:25;;;;;;;5.95;3.97;;;;;;;19.21;75.05;98324.59;5065777;28;20147;-93
2023/04/30 07:55:51;;;;;;;7.07;4.55;;;;;;;19.50;74.66;98309.94;5069433;28;20040;-93
2023/04/30 07:58:18;;;;;;;9.95;4.35;;;;;;;19.90;73.90;98319.72;5069950;28;20097;-94
2023/04/30 08:00:52;;;;;;;8.68;4.55;;;;;;;19.97;70.44;98298.56;5064669;28;20449;-94
2023/04/30 08:03:28;;;;;;;7.68;3.97;;;;;;;20.26;71.93;98305.38;5071677;28;20044;-94
2023/04/30 08:06:01;;;;;;;6.93;4.20;;;;;;;20.09;70.82;98319.25;5067200;28;20111;-93
2023/04/30 08:08:27;;;;;;;7.05;4.30;;;;;;;20.00;70.91;98322.66;5077666;28;20122;-94
2023/04/30 08:10:56;;;;;;;9.80;3.88;;;;;;;19.82;68.16;98309.50;5069995;28;20051;-95
2023/04/30 08:13:33;;;;;;;6.40;3.92;;;;;;;19.82;67.11;98303.22;5068576;28;20409;-93
2023/04/30 08:16:00;;;;;;;6.47;3.75;;;;;;;19.72;68.51;98327.31;5076180;28;20057;-93
2023/04/30 08:18:26;;;;;;;5.38;3.42;;;;;;;19.72;68.88;98311.13;5076718;28;20074;-94
2023/04/30 08:20:52;;;;;;;6.32;3.50;;;;;;;20.02;65.99;98326.94;5060122;28;20489;-94
2023/04/30 08:23:18;;;;;;;5.90;3.75;;;;;;;20.17;65.43;98322.28;5067271;28;20539;-95
2023/04/30 08:25:45;;;;;;;7.63;4.43;;;;;;;19.92;65.27;98333.13;5061083;28;20565;-95
2023/04/30 08:28:11;;;;;;;7.40;4.60;;;;;;;19.55;66.98;98316.84;5064289;28;20094;-95
2023/04/30 08:30:38;;;;;;;6.50;3.88;;;;;;;19.59;69.09;98348.03;5066259;28;20151;-93
2023/04/30 08:33:04;;;;;;;6.03;4.15;;;;;;;19.60;67.48;98333.56;5072291;28;20468;-95
2023/04/30 08:35:30;;;;;;;7.82;3.92;;;;;;;19.53;66.29;98314.25;5058239;28;20045;-96
2023/04/30 08:37:57;;;;;;;7.95;4.32;;;;;;;20.18;65.93;98350.97;5068721;28;20060;-94
2023/04/30 08:40:23;;;;;;;5.97;3.80;;;;;;;20.47;64.66;98350.66;5065513;28;20036;-94
2023/04/30 08:43:03;;;;;;;5.88;3.90;;;;;;;20.42;64.91;98326.69;5058298;28;20135;-95
2023/04/30 08:45:30;;;;;;;6.95;3.72;;;;;;;20.33;63.28;98326.53;5074899;28;20437;-94
2023/04/30 08:47:59;;;;;;;8.63;4.28;;;;;;;19.72;67.27;98321.94;5068954;28;20051;-95
2023/04/30 08:50:25;;;;;;;7.25;3.90;;;;;;;20.44;63.71;98323.91;5062876;28;20040;-95
2023/04/30 08:52:51;;;;;;;7.22;4.25;;;;;;;20.03;64.40;98325.09;5059154;28;20070;-95
2023/04/30 08:55:17;;;;;;;6.13;3.78;;;;;;;19.88;65.20;98327.06;5061552;28;20067;-94
2023/04/30 08:57:43;;;;;;;8.50;4.22;;;;;;;20.15;66.80;98320.66;5063433;28;20486;-94
2023/04/30 09:00:09;;;;;;;7.05;3.63;;;;;;;20.38;63.69;98335.16;5059986;28;20039;-94
2023/04/30 09:02:39;;;;;;;6.80;3.78;;;;;;;20.42;62.92;98317.75;5062979;28;20043;-94
2023/04/30 09:05:10;;;;;;;6.43;4.05;;;;;;;20.36;63.75;98335.25;5057900;28;20067;-96
2023/04/30 09:07:39;;;;;;;7.80;3.78;;;;;;;20.73;62.06;98343.34;5061369;28;20401;-94
2023/04/30 09:10:14;;;;;;;7.10;4.05;;;;;;;20.65;62.58;98352.03;5064866;28;20037;-93
2023/04/30 09:12:42;;;;;;;8.18;3.80;;;;;;;20.74;61.86;98338.81;5063808;28;20542;-93
2023/04/30 09:15:09;;;;;;;5.70;3.67;;;;;;;20.62;60.78;98325.22;5076066;28;20036;-94
2023/04/30 09:17:35;;;;;;;6.65;3.67;;;;;;;20.49;61.83;98311.78;5060743;28;20424;-95
2023/04/30 09:20:13;;;;;;;6.25;3.63;;;;;;;20.80;62.18;98327.56;5067576;28;20124;-94
2023/04/30 09:22:40;;;;;;;7.40;4.38;;;;;;;20.71;62.87;98331.81;5063614;28;20037;-94
2023/04/30 09:25:07;;;;;;;8.18;4.05;;;;;;;21.03;61.78;98320.38;5069141;28;20055;-95
2023/04/30 09:27:34;;;;;;;8.95;3.90;;;;;;;21.26;61.14;98327.56;5069956;28;20127;-95
2023/04/30 09:30:00;;;;;;;6.38;3.75;;;;;;;21.44;59.96;98330.69;5063860;28;20123;-93
2023/04/30 09:32:26;;;;;;;5.97;3.90;;;;;;;21.44;61.78;98348.75;5057564;28;20040;-95
2023/04/30 09:34:52;;;;;;;7.57;3.63;;;;;;;21.31;60.04;98317.22;5056801;28;20043;-95
2023/04/30 09:37:19;;;;;;;6.45;3.92;;;;;;;21.42;60.30;98305.59;5075480;28;20072;-95
2023/04/30 09:39:48;;;;;;;7.20;3.85;;;;;;;21.91;60.02;98334.16;5064158;28;20036;-94
2023/04/30 09:42:14;;;;;;;7.43;3.63;;;;;;;21.37;62.61;98340.25;5057845;28;20040;-93
2023/04/30 09:44:40;;;;;;;5.05;3.60;;;;;;;21.71;60.05;98313.25;5061437;28;20090;-94
2023/04/30 09:47:11;;;;;;;8.65;4.20;;;;;;;21.20;59.81;98321.75;5053714;28;20471;-93
2023/04/30 09:49:39;;;;;;;5.07;3.58;;;;;;;20.99;60.45;98321.56;5069880;28;20476;-95
2023/04/30 09:52:06;;;;;;;6.13;3.47;;;;;;;21.40;62.64;98325.59;5062804;28;20043;-93
2023/04/30 09:54:35;;;;;;;5.28;3.65;;;;;;;21.29;60.13;98310.22;5047235;28;20041;-96
2023/04/30 09:57:02;;;;;;;6.45;3.65;;;;;;;21.25;59.98;98306.03;5051389;28;20045;-94
2023/04/30 09:59:30;;;;;;;6.07;4.00;;;;;;;21.48;59.69;98317.78;5053524;28;20087;-94
2023/04/30 10:01:59;;;;;;;7.47;4.30;;;;;;;20.97;60.11;98293.78;5041907;28;20040;-94
2023/04/30 10:04:26;;;;;;;8.65;3.63;;;;;;;21.50;60.58;98321.25;5066906;28;20068;-93
2023/04/30 10:06:57;;;;;;;7.35;3.78;;;;;;;21.46;60.95;98290.84;5057076;28;20128;-94
2023/04/30 10:09:27;;;;;;;6.78;3.67;;;;;;;21.59;58.88;98289.88;5063150;28;20037;-94
2023/04/30 10:11:56;;;;;;;8.57;4.00;;;;;;;21.51;59.52;98301.31;5059244;28;20702;-94
2023/04/30 10:14:28;;;;;;;7.25;3.92;;;;;;;20.78;60.33;98283.56;5064584;28;20083;-93
2023/04/30 10:17:01;;;;;;;7.07;4.00;;;;;;;21.14;60.25;98282.53;5063991;28;20060;-96
2023/04/30 10:19:31;;;;;;;7.82;3.88;;;;;;;21.50;59.57;98286.06;5062700;28;20037;-95
2023/04/30 10:21:57;;;;;;;6.30;3.83;;;;;;;21.41;58.82;98282.25;5062149;28;20041;-95
2023/04/30 10:24:23;;;;;;;5.85;3.70;;;;;;;21.09;60.65;98288.31;5061467;28;20044;-95
2023/04/30 10:26:49;;;;;;;5.40;3.60;;;;;;;21.29;60.55;98292.16;5063574;28;20055;-96
2023/04/30 10:29:18;;;;;;;9.95;3.83;;;;;;;21.36;59.10;98281.72;5063771;28;20044;-95
2023/04/30 10:31:51;;;;;;;6.65;3.90;;;;;;;21.83;58.07;98279.78;5061451;28;20040;-95
2023/04/30 10:34:34;;;;;;;10.20;4.72;;;;;;;22.44;57.20;98287.44;5065168;28;20070;-96
2023/04/30 10:37:06;;;;;;;8.95;4.47;;;;;;;22.18;56.51;98262.47;5065556;28;20048;-96
2023/04/30 10:39:35;;;;;;;9.20;4.20;;;;;;;22.17;56.97;98258.06;5046636;28;20055;-96
2023/04/30 10:46:07;;;;;;;8.35;3.95;;;;;;;21.38;59.91;98277.03;5044306;28;20041;-95
2023/04/30 10:48:34;;;;;;;7.00;3.90;;;;;;;21.15;59.46;98265.34;5045444;28;20045;-94
2023/04/30 10:51:01;;;;;;;10.10;4.05;;;;;;;21.18;58.87;98258.84;5045760;28;20143;-96
2023/04/30 10:53:30;;;;;;;7.50;3.80;;;;;;;21.34;60.25;98286.41;5043760;28;20136;-95
2023/04/30 10:55:58;;;;;;;7.35;3.45;;;;;;;21.25;60.84;98262.75;5043798;28;20075;-94
2023/04/30 10:58:26;;;;;;;6.28;3.88;;;;;;;21.40;58.58;98258.84;5045003;28;20045;-94
2023/04/30 11:01:03;;;;;;;8.10;3.80;;;;;;;21.93;58.91;98259.09;5054025;28;20037;-92
2023/04/30 11:03:33;;;;;;;9.85;3.95;;;;;;;22.47;58.07;98253.84;5020577;28;20041;-93
2023/04/30 11:06:02;;;;;;;9.70;3.75;;;;;;;23.10;53.98;98249.34;5041590;28;20052;-93
2023/04/30 11:08:32;;;;;;;;;;;;;;;23.44;53.20;98276.22;5042670;28;20052;-94
2023/04/30 11:11:00;;;;;;;6.88;3.65;;;;;;;23.20;53.83;98241.25;5041619;28;19959;-95
2023/04/30 11:13:27;;;;;;;7.75;3.95;;;;;;;23.66;53.47;98244.44;5043727;28;20049;-95
2023/04/30 11:15:53;;;;;;;6.85;4.00;;;;;;;22.76;54.56;98244.06;5042558;28;20056;-95
2023/04/30 11:18:19;;;;;;;8.13;3.45;;;;;;;22.64;52.85;98223.44;5044910;28;20133;-94
2023/04/30 11:20:51;;;;;;;5.15;3.40;;;;;;;22.95;53.83;98253.34;5048763;28;20057;-96
2023/04/30 11:23:22;;;;;;;7.95;3.90;;;;;;;23.00;53.51;98218.56;5060072;28;20068;-94
2023/04/30 11:25:48;;;;;;;5.93;3.47;;;;;;;23.54;51.89;98224.72;5059339;28;20052;-95
2023/04/30 11:28:17;;;;;;;6.90;3.67;;;;;;;23.54;51.45;98249.13;5059693;28;20045;-95
2023/04/30 11:30:51;;;;;;;5.22;3.53;;;;;;;22.91;51.85;98222.91;5060885;28;20048;-96